CPA408 VHHH-RCTP
Flight info
| Callsign | CPA408 |
|---|---|
| Flight time | 1h 9m |
| Altitude | 41000 |
| Route | DUMEP V631 ENVAR M750 EXTRA/N0477F290 M750 TONGA TONGA1A |
| Aircraft | A359/H-SDE2E3GHIJ3J4J5LM1ORWXY/LB1D1 |
Departure
| Time | 2026-05-04 16:46 |
|---|---|
| Airport | Hong Kong International Airport (VHHH) |
Arrival
| Time | 2026-05-04 17:55 |
|---|---|
| Airport | Taiwan Taoyuan International Airport (RCTP) |
| Time | Latitude | Longitude | Altitude | Speed | Heading |
|---|---|---|---|---|---|
| 2026-05-04 16:27 | 22.31356 | 113.92466 | 43 ft | 0 kts | 26° |
| 2026-05-04 16:30 | 22.31339 | 113.92458 | 42 ft | 2 kts | 21° |
| 2026-05-04 16:31 | 22.31309 | 113.92446 | 40 ft | 2 kts | 36° |
| 2026-05-04 16:31 | 22.31291 | 113.92411 | 41 ft | 2 kts | 102° |
| 2026-05-04 16:32 | 22.31305 | 113.92375 | 39 ft | 0 kts | 117° |
| 2026-05-04 16:37 | 22.31256 | 113.92484 | 43 ft | 11 kts | 117° |
| 2026-05-04 16:37 | 22.31192 | 113.92519 | 43 ft | 9 kts | 195° |
| 2026-05-04 16:37 | 22.31049 | 113.92434 | 43 ft | 14 kts | 205° |
| 2026-05-04 16:38 | 22.30793 | 113.92333 | 43 ft | 19 kts | 165° |
| 2026-05-04 16:39 | 22.30623 | 113.92333 | 43 ft | 12 kts | 251° |
| 2026-05-04 16:39 | 22.30551 | 113.92105 | 44 ft | 20 kts | 251° |
| 2026-05-04 16:40 | 22.30421 | 113.91705 | 43 ft | 35 kts | 250° |
| 2026-05-04 16:40 | 22.30254 | 113.91189 | 43 ft | 38 kts | 251° |
| 2026-05-04 16:41 | 22.30094 | 113.90690 | 43 ft | 25 kts | 251° |
| 2026-05-04 16:41 | 22.29917 | 113.90143 | 42 ft | 29 kts | 251° |
| 2026-05-04 16:42 | 22.29809 | 113.89808 | 43 ft | 0 kts | 251° |
| 2026-05-04 16:43 | 22.29764 | 113.89763 | 43 ft | 11 kts | 179° |
| 2026-05-04 16:43 | 22.29735 | 113.89771 | 43 ft | 0 kts | 162° |
| 2026-05-04 16:44 | 22.29669 | 113.89947 | 43 ft | 6 kts | 71° |
| 2026-05-04 16:45 | 22.30000 | 113.90970 | 44 ft | 141 kts | 71° |
| 2026-05-04 16:46 | 22.31199 | 113.94508 | 1771 ft | 188 kts | 73° |
| 2026-05-04 16:46 | 22.32144 | 113.97713 | 2430 ft | 250 kts | 74° |
| 2026-05-04 16:47 | 22.33243 | 114.01325 | 4139 ft | 261 kts | 73° |
| 2026-05-04 16:47 | 22.33582 | 114.05155 | 5916 ft | 259 kts | 108° |
| 2026-05-04 16:48 | 22.29634 | 114.08606 | 8567 ft | 255 kts | 176° |
| 2026-05-04 16:48 | 22.27887 | 114.08601 | 9501 ft | 255 kts | 186° |
| 2026-05-04 16:49 | 22.24180 | 114.08567 | 11038 ft | 271 kts | 183° |
| 2026-05-04 16:49 | 22.20143 | 114.08606 | 11983 ft | 311 kts | 185° |
| 2026-05-04 16:50 | 22.15775 | 114.09836 | 13046 ft | 353 kts | 146° |
| 2026-05-04 16:50 | 22.13009 | 114.14380 | 14430 ft | 375 kts | 117° |
| 2026-05-04 16:51 | 22.10772 | 114.19554 | 15784 ft | 384 kts | 119° |
| 2026-05-04 16:51 | 22.09595 | 114.22133 | 16452 ft | 388 kts | 120° |
| 2026-05-04 16:51 | 22.06637 | 114.26980 | 17762 ft | 387 kts | 143° |
| 2026-05-04 16:52 | 22.02328 | 114.30501 | 19007 ft | 392 kts | 149° |
| 2026-05-04 16:52 | 22.00106 | 114.32231 | 19606 ft | 396 kts | 149° |
| 2026-05-04 16:53 | 21.95601 | 114.35759 | 20808 ft | 404 kts | 149° |
| 2026-05-04 16:53 | 21.88713 | 114.41193 | 22555 ft | 418 kts | 147° |
| 2026-05-04 16:54 | 21.86532 | 114.43314 | 23110 ft | 429 kts | 137° |
| 2026-05-04 16:55 | 21.81829 | 114.55582 | 25085 ft | 461 kts | 108° |
| 2026-05-04 16:55 | 21.80417 | 114.61158 | 25893 ft | 468 kts | 108° |
| 2026-05-04 16:56 | 21.78669 | 114.67960 | 26958 ft | 474 kts | 108° |
| 2026-05-04 16:56 | 21.75970 | 114.78375 | 28375 ft | 488 kts | 108° |
| 2026-05-04 16:57 | 21.75214 | 114.81958 | 28827 ft | 495 kts | 100° |
| 2026-05-04 16:57 | 21.75090 | 114.89430 | 29731 ft | 506 kts | 87° |
| 2026-05-04 16:58 | 21.76196 | 115.00845 | 30766 ft | 521 kts | 84° |
| 2026-05-04 16:58 | 21.76613 | 115.04719 | 31224 ft | 522 kts | 84° |
| 2026-05-04 16:59 | 21.77401 | 115.12529 | 31994 ft | 528 kts | 84° |
| 2026-05-04 17:00 | 21.78881 | 115.28468 | 33421 ft | 540 kts | 84° |
| 2026-05-04 17:00 | 21.79042 | 115.40621 | 34329 ft | 548 kts | 93° |
| 2026-05-04 17:01 | 21.78748 | 115.48831 | 34950 ft | 549 kts | 93° |
| 2026-05-04 17:01 | 21.78432 | 115.56833 | 35022 ft | 520 kts | 93° |
| 2026-05-04 17:02 | 21.78138 | 115.64401 | 35015 ft | 496 kts | 93° |
| 2026-05-04 17:03 | 21.77708 | 115.75491 | 35021 ft | 494 kts | 93° |
| 2026-05-04 17:03 | 21.77275 | 115.86567 | 35030 ft | 493 kts | 93° |
| 2026-05-04 17:04 | 21.76981 | 115.93980 | 35038 ft | 508 kts | 93° |
| 2026-05-04 17:04 | 21.76669 | 116.01739 | 35024 ft | 529 kts | 93° |
| 2026-05-04 17:05 | 21.76344 | 116.09761 | 35034 ft | 540 kts | 93° |
| 2026-05-04 17:05 | 21.76015 | 116.17841 | 35035 ft | 540 kts | 93° |
| 2026-05-04 17:06 | 21.75513 | 116.29945 | 35022 ft | 540 kts | 93° |
| 2026-05-04 17:07 | 21.75058 | 116.40707 | 35037 ft | 540 kts | 93° |
| 2026-05-04 17:07 | 21.74656 | 116.50082 | 35030 ft | 540 kts | 93° |
| 2026-05-04 17:08 | 21.74130 | 116.62178 | 35030 ft | 539 kts | 93° |
| 2026-05-04 17:09 | 21.73774 | 116.70243 | 35034 ft | 539 kts | 93° |
| 2026-05-04 17:09 | 21.73845 | 116.78288 | 35033 ft | 539 kts | 79° |
| 2026-05-04 17:10 | 21.76021 | 116.85977 | 35033 ft | 538 kts | 68° |
| 2026-05-04 17:10 | 21.80110 | 116.97186 | 35031 ft | 538 kts | 66° |
| 2026-05-04 17:11 | 21.82874 | 117.04671 | 35028 ft | 538 kts | 66° |
| 2026-05-04 17:12 | 21.86956 | 117.15935 | 35029 ft | 538 kts | 66° |
| 2026-05-04 17:13 | 21.93700 | 117.34712 | 35047 ft | 537 kts | 67° |
| 2026-05-04 17:14 | 21.99197 | 117.49665 | 35028 ft | 537 kts | 60° |
| 2026-05-04 17:15 | 22.04833 | 117.60059 | 35031 ft | 534 kts | 55° |
| 2026-05-04 17:16 | 22.12634 | 117.73714 | 35033 ft | 534 kts | 55° |
| 2026-05-04 17:17 | 22.20406 | 117.87436 | 35033 ft | 537 kts | 55° |
| 2026-05-04 17:18 | 22.28161 | 118.01185 | 35038 ft | 537 kts | 56° |
| 2026-05-04 17:19 | 22.36116 | 118.14833 | 35036 ft | 536 kts | 54° |
| 2026-05-04 17:20 | 22.44036 | 118.28492 | 35034 ft | 539 kts | 55° |
| 2026-05-04 17:20 | 22.49883 | 118.38881 | 35030 ft | 539 kts | 55° |
| 2026-05-04 17:21 | 22.57684 | 118.52713 | 35032 ft | 537 kts | 55° |
| 2026-05-04 17:22 | 22.61609 | 118.59594 | 35026 ft | 537 kts | 55° |
| 2026-05-04 17:23 | 22.69460 | 118.73384 | 35026 ft | 537 kts | 55° |
| 2026-05-04 17:24 | 22.75304 | 118.83681 | 35023 ft | 537 kts | 55° |
| 2026-05-04 17:25 | 22.83130 | 118.97502 | 35019 ft | 539 kts | 55° |
| 2026-05-04 17:26 | 22.90921 | 119.11303 | 35020 ft | 525 kts | 55° |
| 2026-05-04 17:26 | 22.96383 | 119.21009 | 35018 ft | 490 kts | 55° |
| 2026-05-04 17:27 | 22.99942 | 119.27326 | 35015 ft | 489 kts | 55° |
| 2026-05-04 17:28 | 23.07044 | 119.39969 | 35018 ft | 491 kts | 55° |
| 2026-05-04 17:29 | 23.18086 | 119.58644 | 35018 ft | 481 kts | 39° |
| 2026-05-04 17:30 | 23.26245 | 119.64480 | 35019 ft | 469 kts | 22° |
| 2026-05-04 17:31 | 23.31893 | 119.68011 | 35019 ft | 470 kts | 23° |
| 2026-05-04 17:31 | 23.40383 | 119.73356 | 34909 ft | 465 kts | 23° |
| 2026-05-04 17:32 | 23.46013 | 119.76902 | 33366 ft | 477 kts | 23° |
| 2026-05-04 17:33 | 23.54524 | 119.82596 | 31793 ft | 476 kts | 26° |
| 2026-05-04 17:33 | 23.57310 | 119.84536 | 31294 ft | 474 kts | 26° |
| 2026-05-04 17:34 | 23.65588 | 119.90263 | 29806 ft | 469 kts | 27° |
| 2026-05-04 17:34 | 23.68344 | 119.92167 | 29291 ft | 466 kts | 27° |
| 2026-05-04 17:35 | 23.76502 | 119.97802 | 27818 ft | 458 kts | 27° |
| 2026-05-04 17:35 | 23.81824 | 120.01480 | 26863 ft | 453 kts | 27° |
| 2026-05-04 17:35 | 23.84482 | 120.03318 | 26369 ft | 451 kts | 27° |
| 2026-05-04 17:36 | 23.87132 | 120.05152 | 25883 ft | 449 kts | 27° |
| 2026-05-04 17:36 | 23.89778 | 120.06984 | 25389 ft | 447 kts | 28° |
| 2026-05-04 17:36 | 23.92378 | 120.08785 | 24899 ft | 445 kts | 28° |
| 2026-05-04 17:36 | 23.95012 | 120.10610 | 24417 ft | 443 kts | 27° |
| 2026-05-04 17:37 | 23.97583 | 120.12393 | 23910 ft | 442 kts | 27° |
| 2026-05-04 17:37 | 24.00202 | 120.14210 | 23376 ft | 440 kts | 27° |
| 2026-05-04 17:37 | 24.02782 | 120.16001 | 22846 ft | 437 kts | 27° |
| 2026-05-04 17:37 | 24.05303 | 120.17753 | 22359 ft | 432 kts | 27° |
| 2026-05-04 17:38 | 24.07839 | 120.19516 | 21870 ft | 428 kts | 27° |
| 2026-05-04 17:38 | 24.10348 | 120.21260 | 21392 ft | 424 kts | 27° |
| 2026-05-04 17:38 | 24.12830 | 120.22985 | 20895 ft | 420 kts | 27° |
| 2026-05-04 17:38 | 24.15295 | 120.24698 | 20402 ft | 417 kts | 28° |
| 2026-05-04 17:39 | 24.20135 | 120.28069 | 19470 ft | 410 kts | 28° |
| 2026-05-04 17:39 | 24.21729 | 120.29180 | 19151 ft | 408 kts | 28° |
| 2026-05-04 17:39 | 24.24119 | 120.30845 | 18688 ft | 405 kts | 28° |
| 2026-05-04 17:40 | 24.26470 | 120.32485 | 18203 ft | 402 kts | 28° |
| 2026-05-04 17:40 | 24.29614 | 120.34679 | 17534 ft | 397 kts | 28° |
| 2026-05-04 17:40 | 24.31152 | 120.35752 | 17245 ft | 394 kts | 28° |
| 2026-05-04 17:40 | 24.33456 | 120.37362 | 16785 ft | 389 kts | 28° |
| 2026-05-04 17:41 | 24.35738 | 120.38956 | 16345 ft | 385 kts | 28° |
| 2026-05-04 17:41 | 24.37990 | 120.40529 | 15907 ft | 382 kts | 28° |
| 2026-05-04 17:41 | 24.40203 | 120.42075 | 15455 ft | 380 kts | 28° |
| 2026-05-04 17:41 | 24.42434 | 120.43635 | 15034 ft | 378 kts | 28° |
| 2026-05-04 17:42 | 24.44640 | 120.45179 | 14588 ft | 374 kts | 28° |
| 2026-05-04 17:42 | 24.46827 | 120.46710 | 14149 ft | 371 kts | 28° |
| 2026-05-04 17:42 | 24.48990 | 120.48225 | 13716 ft | 368 kts | 28° |
| 2026-05-04 17:42 | 24.51136 | 120.49728 | 13251 ft | 364 kts | 28° |
| 2026-05-04 17:43 | 24.53261 | 120.51217 | 12831 ft | 361 kts | 29° |
| 2026-05-04 17:43 | 24.55341 | 120.52675 | 12399 ft | 358 kts | 29° |
| 2026-05-04 17:43 | 24.57430 | 120.54140 | 11976 ft | 355 kts | 29° |
| 2026-05-04 17:43 | 24.59505 | 120.55596 | 11562 ft | 352 kts | 29° |
| 2026-05-04 17:44 | 24.61558 | 120.57037 | 11151 ft | 349 kts | 30° |
| 2026-05-04 17:44 | 24.63598 | 120.58469 | 10738 ft | 347 kts | 30° |
| 2026-05-04 17:44 | 24.65594 | 120.59873 | 10574 ft | 334 kts | 30° |
| 2026-05-04 17:44 | 24.67480 | 120.61279 | 10435 ft | 322 kts | 36° |
| 2026-05-04 17:45 | 24.69186 | 120.62855 | 10099 ft | 320 kts | 39° |
| 2026-05-04 17:45 | 24.70845 | 120.64486 | 9737 ft | 322 kts | 40° |
| 2026-05-04 17:45 | 24.72624 | 120.66239 | 9648 ft | 361 kts | 40° |
| 2026-05-04 17:45 | 24.74485 | 120.68075 | 9415 ft | 355 kts | 40° |
| 2026-05-04 17:46 | 24.76331 | 120.69895 | 8650 ft | 361 kts | 40° |
| 2026-05-04 17:46 | 24.78227 | 120.71763 | 8205 ft | 370 kts | 40° |
| 2026-05-04 17:46 | 24.80141 | 120.73648 | 7814 ft | 367 kts | 40° |
| 2026-05-04 17:46 | 24.82034 | 120.75513 | 7420 ft | 361 kts | 41° |
| 2026-05-04 17:47 | 24.83881 | 120.77334 | 7032 ft | 360 kts | 40° |
| 2026-05-04 17:47 | 24.85757 | 120.79182 | 6639 ft | 361 kts | 41° |
| 2026-05-04 17:47 | 24.87623 | 120.81021 | 6243 ft | 356 kts | 41° |
| 2026-05-04 17:47 | 24.89449 | 120.82822 | 5851 ft | 348 kts | 41° |
| 2026-05-04 17:48 | 24.91082 | 120.84668 | 5529 ft | 322 kts | 56° |
| 2026-05-04 17:48 | 24.91806 | 120.86821 | 5343 ft | 289 kts | 88° |
| 2026-05-04 17:48 | 24.91807 | 120.88928 | 5198 ft | 261 kts | 95° |
| 2026-05-04 17:48 | 24.91704 | 120.90826 | 5065 ft | 240 kts | 95° |
| 2026-05-04 17:49 | 24.91608 | 120.92594 | 4929 ft | 225 kts | 97° |
| 2026-05-04 17:49 | 24.91512 | 120.94322 | 4834 ft | 226 kts | 96° |
| 2026-05-04 17:49 | 24.91423 | 120.96042 | 4633 ft | 222 kts | 97° |
| 2026-05-04 17:49 | 24.91337 | 120.97765 | 4400 ft | 227 kts | 96° |
| 2026-05-04 17:50 | 24.91256 | 120.99481 | 4162 ft | 226 kts | 95° |
| 2026-05-04 17:50 | 24.91555 | 121.01181 | 4015 ft | 230 kts | 69° |
| 2026-05-04 17:50 | 24.92379 | 121.02689 | 3820 ft | 229 kts | 51° |
| 2026-05-04 17:50 | 24.93425 | 121.04009 | 3547 ft | 227 kts | 47° |
| 2026-05-04 17:51 | 24.94468 | 121.05311 | 3360 ft | 223 kts | 48° |
| 2026-05-04 17:51 | 24.95451 | 121.06553 | 3202 ft | 214 kts | 49° |
| 2026-05-04 17:51 | 24.96410 | 121.07790 | 2958 ft | 209 kts | 49° |
| 2026-05-04 17:51 | 24.97345 | 121.08999 | 2745 ft | 204 kts | 49° |
| 2026-05-04 17:52 | 24.98255 | 121.10171 | 2575 ft | 202 kts | 48° |
| 2026-05-04 17:52 | 24.99171 | 121.11335 | 2467 ft | 200 kts | 47° |
| 2026-05-04 17:52 | 25.00080 | 121.12474 | 2246 ft | 192 kts | 48° |
| 2026-05-04 17:52 | 25.00926 | 121.13544 | 2016 ft | 178 kts | 49° |
| 2026-05-04 17:53 | 25.01702 | 121.14530 | 1770 ft | 166 kts | 50° |
| 2026-05-04 17:53 | 25.02432 | 121.15456 | 1554 ft | 154 kts | 50° |
| 2026-05-04 17:53 | 25.03113 | 121.16318 | 1352 ft | 143 kts | 50° |
| 2026-05-04 17:53 | 25.03749 | 121.17124 | 1158 ft | 135 kts | 50° |
| 2026-05-04 17:54 | 25.04345 | 121.17880 | 987 ft | 130 kts | 50° |
| 2026-05-04 17:54 | 25.04942 | 121.18624 | 831 ft | 129 kts | 51° |
| 2026-05-04 17:54 | 25.05542 | 121.19362 | 658 ft | 128 kts | 52° |
| 2026-05-04 17:54 | 25.06127 | 121.20090 | 431 ft | 124 kts | 50° |
| 2026-05-04 17:55 | 25.06687 | 121.20799 | 272 ft | 122 kts | 54° |
| 2026-05-04 17:55 | 25.07228 | 121.21504 | 158 ft | 122 kts | 56° |
| 2026-05-04 17:55 | 25.07742 | 121.22178 | 107 ft | 106 kts | 49° |
| 2026-05-04 17:55 | 25.08079 | 121.22602 | 106 ft | 33 kts | 49° |
| 2026-05-04 17:56 | 25.08212 | 121.22773 | 106 ft | 28 kts | 49° |
| 2026-05-04 17:56 | 25.08336 | 121.22930 | 106 ft | 27 kts | 49° |
| 2026-05-04 17:56 | 25.08429 | 121.23119 | 105 ft | 31 kts | 73° |
| 2026-05-04 17:56 | 25.08448 | 121.23219 | 106 ft | 0 kts | 79° |
| 2026-05-04 17:57 | 25.08452 | 121.23240 | 104 ft | 6 kts | 79° |
| 2026-05-04 17:57 | 25.08458 | 121.23290 | 107 ft | 7 kts | 90° |
| 2026-05-04 17:57 | 25.08467 | 121.23346 | 105 ft | 9 kts | 77° |
| 2026-05-04 17:57 | 25.08478 | 121.23420 | 107 ft | 11 kts | 88° |
| 2026-05-04 17:58 | 25.08442 | 121.23491 | 105 ft | 12 kts | 141° |
| 2026-05-04 17:58 | 25.08379 | 121.23482 | 105 ft | 10 kts | 224° |
| 2026-05-04 17:58 | 25.08340 | 121.23462 | 105 ft | 6 kts | 169° |
| 2026-05-04 17:58 | 25.08296 | 121.23494 | 105 ft | 0 kts | 136° |
| 2026-05-04 17:59 | 25.08275 | 121.23515 | 106 ft | 6 kts | 139° |
| 2026-05-04 17:59 | 25.08267 | 121.23523 | 104 ft | 4 kts | 138° |
| 2026-05-04 17:59 | 25.08257 | 121.23533 | 105 ft | 0 kts | 138° |